createdAt,value
2023-03-22T00:00:03.162Z,9.5
2023-03-22T00:15:02.484Z,9.7
2023-03-22T00:30:03.114Z,9.8
2023-03-22T00:45:02.343Z,9.8
2023-03-22T01:00:02.793Z,9.9
2023-03-22T01:15:03.241Z,10.1
2023-03-22T01:30:02.655Z,10.1
2023-03-22T01:45:03.171Z,10.1
2023-03-22T02:00:02.525Z,10.1
2023-03-22T02:15:03.179Z,10.0
2023-03-22T02:30:02.434Z,10.0
2023-03-22T02:45:02.850Z,10.0
2023-03-22T03:00:02.338Z,9.9
2023-03-22T03:15:02.741Z,9.9
2023-03-22T03:30:02.201Z,9.9
2023-03-22T03:45:02.615Z,9.9
2023-03-22T04:00:03.213Z,10.0
2023-03-22T04:15:02.480Z,10.1
2023-03-22T04:30:02.931Z,10.1
2023-03-22T04:45:02.376Z,10.2
2023-03-22T05:00:02.823Z,10.1
2023-03-22T05:15:03.240Z,9.9
2023-03-22T05:30:02.650Z,9.7
2023-03-22T05:45:03.244Z,9.6
2023-03-22T06:00:02.553Z,9.7
2023-03-22T06:15:02.981Z,10.0
2023-03-22T06:30:02.433Z,10.3
2023-03-22T06:45:02.884Z,10.7
2023-03-22T07:00:02.293Z,10.9
2023-03-22T07:15:02.741Z,11.0
2023-03-22T07:30:02.253Z,11.1
2023-03-22T07:45:02.669Z,10.9
2023-03-22T08:00:03.252Z,11.8
2023-03-22T08:15:02.701Z,12.3
2023-03-22T08:30:02.956Z,12.7
2023-03-22T08:45:02.376Z,12.7
2023-03-22T09:00:02.826Z,13.6
2023-03-22T09:15:03.295Z,12.8
2023-03-22T09:30:02.701Z,13.0
2023-03-22T09:45:03.269Z,12.9
2023-03-22T10:00:02.557Z,13.1
2023-03-22T10:15:03.207Z,13.4
2023-03-22T10:30:02.443Z,13.4
2023-03-22T10:45:02.887Z,13.6
2023-03-22T11:00:02.365Z,13.9
2023-03-22T11:15:02.802Z,13.8
2023-03-22T11:30:02.282Z,14.4
2023-03-22T11:45:02.645Z,14.2
2023-03-22T12:00:03.305Z,13.7
2023-03-22T12:15:02.520Z,13.5
2023-03-22T12:30:02.978Z,13.3
2023-03-22T12:45:05.525Z,12.7
2023-03-22T13:15:03.342Z,11.7
2023-03-22T13:30:02.705Z,11.8
2023-03-22T13:45:03.351Z,12.1
2023-03-22T14:00:14.259Z,12.4
2023-03-22T15:00:03.376Z,12.8
2023-03-22T15:15:02.773Z,12.8
2023-03-22T15:30:02.306Z,12.5
2023-03-22T15:45:02.675Z,12.4
2023-03-22T16:00:03.318Z,12.1
2023-03-22T16:15:02.559Z,11.7
2023-03-22T16:30:03.017Z,11.8
2023-03-22T16:45:02.435Z,11.9
2023-03-22T17:00:02.887Z,11.9
2023-03-22T17:15:02.412Z,11.9
2023-03-22T17:30:02.782Z,11.8
2023-03-22T17:45:02.348Z,12.0
2023-03-22T18:00:02.671Z,11.8
2023-03-22T18:15:03.264Z,11.8
2023-03-22T18:30:02.536Z,11.9
2023-03-22T18:45:02.992Z,11.9
2023-03-22T19:00:02.398Z,12.0
2023-03-22T19:15:21.459Z,12.2
2023-03-22T19:30:02.357Z,12.1
2023-03-22T19:45:02.740Z,12.2
2023-03-22T20:00:43.991Z,12.2
2023-03-22T20:15:02.604Z,12.4
2023-03-22T20:30:02.054Z,12.3
2023-03-22T20:45:02.473Z,12.1
2023-03-22T21:00:02.917Z,12.0
2023-03-22T21:15:02.376Z,11.8
2023-03-22T21:30:02.773Z,11.5
2023-03-22T21:45:03.383Z,11.5
2023-03-22T22:00:02.653Z,11.5
2023-03-22T22:15:03.100Z,11.2
2023-03-22T22:45:02.971Z,10.6
2023-03-22T23:00:02.409Z,10.6
2023-03-22T23:15:02.834Z,10.4
2023-03-22T23:30:02.409Z,10.6
2023-03-22T23:45:02.701Z,10.5
